sensor_id;sensor_type;location;lat;lon;timestamp;pressure;altitude;pressure_sealevel;temperature;humidity
72525;BME280;60547;48.502;8.996;2023-06-22T00:00:42;97882.25;;;20.48;83.77
72525;BME280;60547;48.502;8.996;2023-06-22T00:03:09;97889.72;;;20.51;83.68
72525;BME280;60547;48.502;8.996;2023-06-22T00:05:34;97884.81;;;20.46;84.17
72525;BME280;60547;48.502;8.996;2023-06-22T00:08:02;97894.34;;;20.48;83.05
72525;BME280;60547;48.502;8.996;2023-06-22T00:10:29;97876.72;;;20.33;83.22
72525;BME280;60547;48.502;8.996;2023-06-22T00:12:54;97900.22;;;20.45;83.51
72525;BME280;60547;48.502;8.996;2023-06-22T00:15:19;97905.41;;;20.52;83.65
72525;BME280;60547;48.502;8.996;2023-06-22T00:17:45;97895.84;;;20.44;83.66
72525;BME280;60547;48.502;8.996;2023-06-22T00:20:11;97886.25;;;20.36;84.38
72525;BME280;60547;48.502;8.996;2023-06-22T00:22:36;97880.56;;;20.30;85.05
72525;BME280;60547;48.502;8.996;2023-06-22T00:25:06;97884.09;;;20.19;85.89
72525;BME280;60547;48.502;8.996;2023-06-22T00:27:32;97878.91;;;20.12;86.21
72525;BME280;60547;48.502;8.996;2023-06-22T00:29:57;97876.53;;;20.05;86.49
72525;BME280;60547;48.502;8.996;2023-06-22T00:32:23;97872.16;;;20.04;86.64
72525;BME280;60547;48.502;8.996;2023-06-22T00:34:48;97880.34;;;20.02;87.11
72525;BME280;60547;48.502;8.996;2023-06-22T00:37:15;97857.22;;;19.98;86.98
72525;BME280;60547;48.502;8.996;2023-06-22T00:39:42;97854.09;;;19.96;87.60
72525;BME280;60547;48.502;8.996;2023-06-22T00:42:08;97881.34;;;19.99;87.35
72525;BME280;60547;48.502;8.996;2023-06-22T00:44:35;97883.44;;;20.04;86.78
72525;BME280;60547;48.502;8.996;2023-06-22T00:47:00;97877.72;;;19.93;87.36
72525;BME280;60547;48.502;8.996;2023-06-22T00:49:26;97881.34;;;19.99;87.43
72525;BME280;60547;48.502;8.996;2023-06-22T00:51:52;97882.13;;;19.99;87.35
72525;BME280;60547;48.502;8.996;2023-06-22T00:54:17;97899.34;;;20.02;87.21
72525;BME280;60547;48.502;8.996;2023-06-22T00:56:53;97895.47;;;19.99;86.88
72525;BME280;60547;48.502;8.996;2023-06-22T00:59:20;97897.47;;;19.93;86.73
72525;BME280;60547;48.502;8.996;2023-06-22T01:01:46;97902.31;;;19.87;87.22
72525;BME280;60547;48.502;8.996;2023-06-22T01:04:12;97907.41;;;19.83;87.76
72525;BME280;60547;48.502;8.996;2023-06-22T01:09:59;97911.50;;;19.82;87.19
72525;BME280;60547;48.502;8.996;2023-06-22T01:12:30;97899.16;;;19.79;87.81
72525;BME280;60547;48.502;8.996;2023-06-22T01:15:04;97890.31;;;19.66;88.02
72525;BME280;60547;48.502;8.996;2023-06-22T01:17:31;97893.47;;;19.74;87.67
72525;BME280;60547;48.502;8.996;2023-06-22T01:19:58;97908.41;;;19.80;87.02
72525;BME280;60547;48.502;8.996;2023-06-22T01:22:29;97898.78;;;19.66;87.27
72525;BME280;60547;48.502;8.996;2023-06-22T01:30:07;97891.78;;;19.61;88.05
72525;BME280;60547;48.502;8.996;2023-06-22T01:32:36;97911.88;;;19.69;88.52
72525;BME280;60547;48.502;8.996;2023-06-22T01:35:05;97897.22;;;19.65;89.36
72525;BME280;60547;48.502;8.996;2023-06-22T01:37:32;97903.41;;;19.69;89.11
72525;BME280;60547;48.502;8.996;2023-06-22T01:40:00;97892.28;;;19.60;89.02
72525;BME280;60547;48.502;8.996;2023-06-22T01:42:27;97896.13;;;19.57;89.34
72525;BME280;60547;48.502;8.996;2023-06-22T01:44:53;97894.19;;;19.48;89.68
72525;BME280;60547;48.502;8.996;2023-06-22T01:47:20;97892.94;;;19.49;89.99
72525;BME280;60547;48.502;8.996;2023-06-22T01:49:46;97881.72;;;19.34;90.32
72525;BME280;60547;48.502;8.996;2023-06-22T01:52:12;97891.41;;;19.28;90.99
72525;BME280;60547;48.502;8.996;2023-06-22T01:54:39;97889.84;;;19.27;90.97
72525;BME280;60547;48.502;8.996;2023-06-22T01:57:04;97904.25;;;19.29;90.34
72525;BME280;60547;48.502;8.996;2023-06-22T02:02:10;97903.56;;;19.14;91.01
72525;BME280;60547;48.502;8.996;2023-06-22T02:04:49;97904.81;;;19.13;90.70
72525;BME280;60547;48.502;8.996;2023-06-22T02:07:18;97904.97;;;19.03;91.28
72525;BME280;60547;48.502;8.996;2023-06-22T02:09:48;97893.69;;;19.03;91.79
72525;BME280;60547;48.502;8.996;2023-06-22T02:12:19;97902.22;;;19.09;92.07
72525;BME280;60547;48.502;8.996;2023-06-22T02:14:46;97907.09;;;19.09;91.64
72525;BME280;60547;48.502;8.996;2023-06-22T02:17:12;97898.06;;;19.04;91.56
72525;BME280;60547;48.502;8.996;2023-06-22T02:19:41;97907.78;;;19.03;90.94
72525;BME280;60547;48.502;8.996;2023-06-22T02:22:06;97902.28;;;18.94;91.37
72525;BME280;60547;48.502;8.996;2023-06-22T02:24:32;97912.03;;;18.93;91.75
72525;BME280;60547;48.502;8.996;2023-06-22T02:27:00;97908.13;;;18.91;92.29
72525;BME280;60547;48.502;8.996;2023-06-22T02:29:25;97898.34;;;18.86;92.18
72525;BME280;60547;48.502;8.996;2023-06-22T02:31:53;97904.81;;;18.92;92.18
72525;BME280;60547;48.502;8.996;2023-06-22T02:34:18;97901.16;;;18.86;92.08
72525;BME280;60547;48.502;8.996;2023-06-22T02:36:45;97909.34;;;18.84;92.14
72525;BME280;60547;48.502;8.996;2023-06-22T02:39:23;97889.53;;;18.79;92.46
72525;BME280;60547;48.502;8.996;2023-06-22T02:41:50;97886.63;;;18.73;92.87
72525;BME280;60547;48.502;8.996;2023-06-22T02:44:15;97881.91;;;18.85;92.84
72525;BME280;60547;48.502;8.996;2023-06-22T02:46:41;97883.09;;;18.78;92.78
72525;BME280;60547;48.502;8.996;2023-06-22T02:49:07;97876.69;;;18.78;92.91
72525;BME280;60547;48.502;8.996;2023-06-22T02:51:33;97865.84;;;18.70;93.09
72525;BME280;60547;48.502;8.996;2023-06-22T02:54:00;97872.47;;;18.67;92.29
72525;BME280;60547;48.502;8.996;2023-06-22T02:56:26;97870.84;;;18.61;92.07
72525;BME280;60547;48.502;8.996;2023-06-22T02:58:51;97878.31;;;18.64;92.13
72525;BME280;60547;48.502;8.996;2023-06-22T03:01:17;97885.50;;;18.65;92.71
72525;BME280;60547;48.502;8.996;2023-06-22T03:03:49;97881.13;;;18.64;93.25
72525;BME280;60547;48.502;8.996;2023-06-22T03:06:15;97867.41;;;18.57;93.25
72525;BME280;60547;48.502;8.996;2023-06-22T03:08:41;97885.69;;;18.61;93.51
72525;BME280;60547;48.502;8.996;2023-06-22T03:11:09;97876.84;;;18.54;92.71
72525;BME280;60547;48.502;8.996;2023-06-22T03:13:34;97876.78;;;18.48;92.74
72525;BME280;60547;48.502;8.996;2023-06-22T03:16:00;97882.41;;;18.48;92.74
72525;BME280;60547;48.502;8.996;2023-06-22T03:18:25;97877.75;;;18.45;93.13
72525;BME280;60547;48.502;8.996;2023-06-22T03:20:51;97875.44;;;18.44;93.64
72525;BME280;60547;48.502;8.996;2023-06-22T03:23:16;97872.03;;;18.39;93.71
72525;BME280;60547;48.502;8.996;2023-06-22T03:25:42;97870.19;;;18.36;93.76
72525;BME280;60547;48.502;8.996;2023-06-22T03:28:10;97860.13;;;18.30;93.98
72525;BME280;60547;48.502;8.996;2023-06-22T03:30:35;97851.09;;;18.26;94.38
72525;BME280;60547;48.502;8.996;2023-06-22T03:33:01;97858.00;;;18.25;93.53
72525;BME280;60547;48.502;8.996;2023-06-22T03:35:26;97861.88;;;18.27;93.09
72525;BME280;60547;48.502;8.996;2023-06-22T03:37:52;97853.72;;;18.29;93.40
72525;BME280;60547;48.502;8.996;2023-06-22T03:40:17;97870.19;;;18.36;93.45
72525;BME280;60547;48.502;8.996;2023-06-22T03:42:43;97856.81;;;18.31;93.43
72525;BME280;60547;48.502;8.996;2023-06-22T03:45:09;97860.31;;;18.26;93.53
72525;BME280;60547;48.502;8.996;2023-06-22T03:47:34;97855.94;;;18.25;93.59
72525;BME280;60547;48.502;8.996;2023-06-22T03:50:00;97857.78;;;18.28;93.86
72525;BME280;60547;48.502;8.996;2023-06-22T03:52:26;97859.13;;;18.33;93.90
72525;BME280;60547;48.502;8.996;2023-06-22T03:54:51;97859.34;;;18.29;93.92
72525;BME280;60547;48.502;8.996;2023-06-22T03:57:17;97854.59;;;18.21;93.87
72525;BME280;60547;48.502;8.996;2023-06-22T03:59:42;97860.25;;;18.21;94.59
72525;BME280;60547;48.502;8.996;2023-06-22T04:02:12;97855.94;;;18.25;94.65
72525;BME280;60547;48.502;8.996;2023-06-22T04:04:43;97854.13;;;18.22;94.51
72525;BME280;60547;48.502;8.996;2023-06-22T04:07:11;97859.53;;;18.26;94.56
72525;BME280;60547;48.502;8.996;2023-06-22T04:09:36;97847.41;;;18.20;95.08
72525;BME280;60547;48.502;8.996;2023-06-22T04:12:02;97842.84;;;18.22;94.95
72525;BME280;60547;48.502;8.996;2023-06-22T04:14:28;97849.63;;;18.30;94.74
72525;BME280;60547;48.502;8.996;2023-06-22T04:16:53;97846.03;;;18.30;94.81
72525;BME280;60547;48.502;8.996;2023-06-22T04:19:19;97836.22;;;18.25;94.98
72525;BME280;60547;48.502;8.996;2023-06-22T04:21:44;97839.69;;;18.35;95.05
72525;BME280;60547;48.502;8.996;2023-06-22T04:24:11;97835.81;;;18.32;95.01
72525;BME280;60547;48.502;8.996;2023-06-22T04:26:37;97831.75;;;18.33;94.92
72525;BME280;60547;48.502;8.996;2023-06-22T04:29:03;97837.94;;;18.37;94.40
72525;BME280;60547;48.502;8.996;2023-06-22T04:31:34;97831.16;;;18.29;94.60
72525;BME280;60547;48.502;8.996;2023-06-22T04:34:07;97832.31;;;18.37;93.85
72525;BME280;60547;48.502;8.996;2023-06-22T04:36:37;97831.31;;;18.40;94.01
72525;BME280;60547;48.502;8.996;2023-06-22T04:39:12;97833.16;;;18.44;93.82
72525;BME280;60547;48.502;8.996;2023-06-22T04:41:39;97825.28;;;18.48;94.05
72525;BME280;60547;48.502;8.996;2023-06-22T04:44:09;97823.50;;;18.50;93.85
72525;BME280;60547;48.502;8.996;2023-06-22T04:46:35;97821.19;;;18.49;93.37
72525;BME280;60547;48.502;8.996;2023-06-22T04:49:12;97822.75;;;18.50;93.52
72525;BME280;60547;48.502;8.996;2023-06-22T04:51:41;97824.47;;;18.62;92.92
72525;BME280;60547;48.502;8.996;2023-06-22T04:54:08;97819.38;;;18.66;93.02
72525;BME280;60547;48.502;8.996;2023-06-22T04:56:34;97810.00;;;18.75;91.92
72525;BME280;60547;48.502;8.996;2023-06-22T04:59:00;97798.53;;;18.78;92.12
72525;BME280;60547;48.502;8.996;2023-06-22T05:01:26;97811.34;;;18.79;92.60
72525;BME280;60547;48.502;8.996;2023-06-22T05:03:52;97807.25;;;18.80;92.12
72525;BME280;60547;48.502;8.996;2023-06-22T05:06:24;97797.53;;;18.81;92.51
72525;BME280;60547;48.502;8.996;2023-06-22T05:08:57;97780.97;;;18.68;93.49
72525;BME280;60547;48.502;8.996;2023-06-22T05:11:26;97794.00;;;18.86;93.02
72525;BME280;60547;48.502;8.996;2023-06-22T05:13:52;97779.13;;;18.86;92.69
72525;BME280;60547;48.502;8.996;2023-06-22T05:16:18;97809.34;;;19.06;91.71
72525;BME280;60547;48.502;8.996;2023-06-22T05:18:50;97799.59;;;19.07;91.14
72525;BME280;60547;48.502;8.996;2023-06-22T05:21:16;97803.00;;;19.11;92.19
72525;BME280;60547;48.502;8.996;2023-06-22T05:23:42;97790.00;;;19.19;91.58
72525;BME280;60547;48.502;8.996;2023-06-22T05:26:07;97795.97;;;19.26;91.54
72525;BME280;60547;48.502;8.996;2023-06-22T05:28:35;97800.63;;;19.29;91.41
72525;BME280;60547;48.502;8.996;2023-06-22T05:31:00;97800.44;;;19.39;91.68
72525;BME280;60547;48.502;8.996;2023-06-22T05:33:25;97810.78;;;19.47;90.56
72525;BME280;60547;48.502;8.996;2023-06-22T05:35:51;97806.97;;;19.50;90.61
72525;BME280;60547;48.502;8.996;2023-06-22T05:38:16;97799.34;;;19.56;90.12
72525;BME280;60547;48.502;8.996;2023-06-22T05:40:42;97810.19;;;19.63;90.11
72525;BME280;60547;48.502;8.996;2023-06-22T05:43:07;97807.09;;;19.61;90.22
72525;BME280;60547;48.502;8.996;2023-06-22T05:45:33;97806.91;;;19.71;90.15
72525;BME280;60547;48.502;8.996;2023-06-22T05:47:58;97802.91;;;19.83;90.35
72525;BME280;60547;48.502;8.996;2023-06-22T05:50:24;97806.59;;;19.94;90.24
72525;BME280;60547;48.502;8.996;2023-06-22T05:52:49;97803.81;;;20.00;89.35
72525;BME280;60547;48.502;8.996;2023-06-22T05:55:15;97802.25;;;19.99;88.41
72525;BME280;60547;48.502;8.996;2023-06-22T05:57:41;97798.16;;;20.00;88.06
72525;BME280;60547;48.502;8.996;2023-06-22T06:00:06;97791.22;;;20.01;87.31
72525;BME280;60547;48.502;8.996;2023-06-22T06:02:35;97792.84;;;20.13;86.60
72525;BME280;60547;48.502;8.996;2023-06-22T06:05:01;97793.94;;;20.27;86.63
72525;BME280;60547;48.502;8.996;2023-06-22T06:07:28;97797.91;;;20.41;87.33
72525;BME280;60547;48.502;8.996;2023-06-22T06:09:53;97792.56;;;20.48;87.10
72525;BME280;60547;48.502;8.996;2023-06-22T06:12:19;97787.47;;;20.58;85.25
72525;BME280;60547;48.502;8.996;2023-06-22T06:14:44;97791.88;;;20.70;84.48
72525;BME280;60547;48.502;8.996;2023-06-22T06:17:09;97790.63;;;20.77;84.43
72525;BME280;60547;48.502;8.996;2023-06-22T06:19:35;97809.47;;;20.96;84.49
72525;BME280;60547;48.502;8.996;2023-06-22T06:22:01;97796.88;;;20.98;82.61
72525;BME280;60547;48.502;8.996;2023-06-22T06:24:26;97793.31;;;21.14;82.54
72525;BME280;60547;48.502;8.996;2023-06-22T06:26:52;97788.22;;;21.29;82.67
72525;BME280;60547;48.502;8.996;2023-06-22T06:29:17;97789.50;;;21.34;81.62
72525;BME280;60547;48.502;8.996;2023-06-22T06:31:43;97790.56;;;21.47;80.21
72525;BME280;60547;48.502;8.996;2023-06-22T06:34:08;97787.22;;;21.77;79.89
72525;BME280;60547;48.502;8.996;2023-06-22T06:36:33;97798.03;;;22.17;77.42
72525;BME280;60547;48.502;8.996;2023-06-22T06:38:59;97788.91;;;22.52;75.51
72525;BME280;60547;48.502;8.996;2023-06-22T06:41:24;97790.66;;;22.67;75.65
72525;BME280;60547;48.502;8.996;2023-06-22T06:43:50;97790.66;;;22.67;75.10
72525;BME280;60547;48.502;8.996;2023-06-22T06:46:15;97784.94;;;22.89;75.14
72525;BME280;60547;48.502;8.996;2023-06-22T06:48:41;97790.94;;;23.21;73.01
72525;BME280;60547;48.502;8.996;2023-06-22T06:51:07;97783.91;;;23.33;72.08
72525;BME280;60547;48.502;8.996;2023-06-22T06:53:36;97783.69;;;23.26;72.10
72525;BME280;60547;48.502;8.996;2023-06-22T06:56:01;97789.25;;;23.42;72.77
72525;BME280;60547;48.502;8.996;2023-06-22T06:58:27;97786.81;;;23.63;71.78
72525;BME280;60547;48.502;8.996;2023-06-22T07:00:57;97783.25;;;23.51;72.51
72525;BME280;60547;48.502;8.996;2023-06-22T07:03:22;97781.56;;;23.73;71.73
72525;BME280;60547;48.502;8.996;2023-06-22T07:05:48;97771.78;;;23.68;71.21
72525;BME280;60547;48.502;8.996;2023-06-22T07:08:13;97780.31;;;23.68;71.21
72525;BME280;60547;48.502;8.996;2023-06-22T07:10:39;97773.31;;;23.69;71.42
72525;BME280;60547;48.502;8.996;2023-06-22T07:13:04;97758.19;;;23.86;71.55
72525;BME280;60547;48.502;8.996;2023-06-22T07:15:30;97745.81;;;23.83;70.73
72525;BME280;60547;48.502;8.996;2023-06-22T07:17:55;97755.84;;;23.90;70.56
72525;BME280;60547;48.502;8.996;2023-06-22T07:20:21;97752.34;;;24.02;69.94
72525;BME280;60547;48.502;8.996;2023-06-22T07:22:46;97748.31;;;24.16;69.63
72525;BME280;60547;48.502;8.996;2023-06-22T07:25:12;97733.72;;;24.31;67.79
72525;BME280;60547;48.502;8.996;2023-06-22T07:27:46;97718.53;;;24.47;67.31
72525;BME280;60547;48.502;8.996;2023-06-22T07:30:13;97724.75;;;24.46;64.61
72525;BME280;60547;48.502;8.996;2023-06-22T07:32:39;97714.31;;;24.54;65.33
72525;BME280;60547;48.502;8.996;2023-06-22T07:35:05;97718.41;;;24.77;65.82
72525;BME280;60547;48.502;8.996;2023-06-22T07:37:31;97721.53;;;24.74;64.63
72525;BME280;60547;48.502;8.996;2023-06-22T07:39:58;97723.63;;;24.92;63.73
72525;BME280;60547;48.502;8.996;2023-06-22T07:42:26;97733.03;;;25.06;64.63
72525;BME280;60547;48.502;8.996;2023-06-22T07:44:53;97726.88;;;25.21;62.19
72525;BME280;60547;48.502;8.996;2023-06-22T07:47:20;97723.94;;;25.26;62.84
72525;BME280;60547;48.502;8.996;2023-06-22T07:49:46;97724.78;;;25.53;62.24
72525;BME280;60547;48.502;8.996;2023-06-22T07:52:12;97716.44;;;25.42;61.17
72525;BME280;60547;48.502;8.996;2023-06-22T07:54:37;97729.72;;;25.53;61.65
72525;BME280;60547;48.502;8.996;2023-06-22T07:57:03;97745.53;;;25.54;60.81
72525;BME280;60547;48.502;8.996;2023-06-22T07:59:29;97757.63;;;25.41;61.29
72525;BME280;60547;48.502;8.996;2023-06-22T08:01:55;97759.63;;;25.65;61.32
72525;BME280;60547;48.502;8.996;2023-06-22T08:04:20;97762.06;;;25.74;61.50
72525;BME280;60547;48.502;8.996;2023-06-22T08:06:46;97765.34;;;25.78;61.51
72525;BME280;60547;48.502;8.996;2023-06-22T08:09:11;97783.16;;;25.84;60.90
72525;BME280;60547;48.502;8.996;2023-06-22T08:11:37;97791.75;;;25.65;61.29
72525;BME280;60547;48.502;8.996;2023-06-22T08:14:03;97795.19;;;25.77;61.13
72525;BME280;60547;48.502;8.996;2023-06-22T08:16:28;97792.66;;;25.55;61.08
72525;BME280;60547;48.502;8.996;2023-06-22T08:18:54;97802.44;;;25.59;60.99
72525;BME280;60547;48.502;8.996;2023-06-22T08:21:20;97801.91;;;25.61;61.51
72525;BME280;60547;48.502;8.996;2023-06-22T08:23:45;97787.19;;;25.57;61.04
72525;BME280;60547;48.502;8.996;2023-06-22T08:26:11;97779.25;;;25.50;61.38
72525;BME280;60547;48.502;8.996;2023-06-22T08:28:36;97802.38;;;25.65;60.84
72525;BME280;60547;48.502;8.996;2023-06-22T08:31:02;97789.28;;;25.88;60.26
72525;BME280;60547;48.502;8.996;2023-06-22T08:33:27;97801.56;;;25.83;61.36
72525;BME280;60547;48.502;8.996;2023-06-22T08:35:55;97795.22;;;25.90;61.83
72525;BME280;60547;48.502;8.996;2023-06-22T08:38:20;97754.44;;;25.63;60.22
72525;BME280;60547;48.502;8.996;2023-06-22T08:40:46;97791.91;;;25.86;60.56
72525;BME280;60547;48.502;8.996;2023-06-22T08:43:11;97780.75;;;25.88;60.11
72525;BME280;60547;48.502;8.996;2023-06-22T08:45:37;97771.28;;;25.80;61.37
72525;BME280;60547;48.502;8.996;2023-06-22T08:48:02;97760.75;;;25.75;61.22
72525;BME280;60547;48.502;8.996;2023-06-22T08:50:28;97762.00;;;25.93;60.89
72525;BME280;60547;48.502;8.996;2023-06-22T08:52:54;97795.31;;;26.30;59.40
72525;BME280;60547;48.502;8.996;2023-06-22T08:55:19;97797.31;;;26.48;60.38
72525;BME280;60547;48.502;8.996;2023-06-22T08:57:44;97791.63;;;26.61;58.87
72525;BME280;60547;48.502;8.996;2023-06-22T09:00:11;97793.81;;;26.68;58.51
72525;BME280;60547;48.502;8.996;2023-06-22T09:02:42;97796.34;;;26.72;58.45
72525;BME280;60547;48.502;8.996;2023-06-22T09:05:08;97773.69;;;26.87;57.73
72525;BME280;60547;48.502;8.996;2023-06-22T09:07:34;97778.31;;;26.90;58.55
72525;BME280;60547;48.502;8.996;2023-06-22T09:09:59;97775.56;;;26.85;57.65
72525;BME280;60547;48.502;8.996;2023-06-22T09:12:25;97772.72;;;26.98;57.76
72525;BME280;60547;48.502;8.996;2023-06-22T09:14:53;97772.47;;;27.09;58.62
72525;BME280;60547;48.502;8.996;2023-06-22T09:17:18;97758.81;;;27.15;57.09
72525;BME280;60547;48.502;8.996;2023-06-22T09:19:44;97747.72;;;27.46;56.83
72525;BME280;60547;48.502;8.996;2023-06-22T09:22:10;97741.84;;;27.30;57.41
72525;BME280;60547;48.502;8.996;2023-06-22T09:24:35;97734.47;;;27.56;56.68
72525;BME280;60547;48.502;8.996;2023-06-22T09:27:01;97724.31;;;27.89;54.36
72525;BME280;60547;48.502;8.996;2023-06-22T09:29:28;97711.91;;;27.65;54.88
72525;BME280;60547;48.502;8.996;2023-06-22T09:31:53;97704.16;;;27.53;55.29
72525;BME280;60547;48.502;8.996;2023-06-22T09:34:20;97712.59;;;27.79;54.53
72525;BME280;60547;48.502;8.996;2023-06-22T09:36:48;97717.03;;;28.09;54.86
72525;BME280;60547;48.502;8.996;2023-06-22T09:39:14;97711.00;;;28.20;53.33
72525;BME280;60547;48.502;8.996;2023-06-22T09:41:40;97709.63;;;28.42;54.63
72525;BME280;60547;48.502;8.996;2023-06-22T09:44:05;97690.97;;;27.91;54.00
72525;BME280;60547;48.502;8.996;2023-06-22T09:46:31;97688.53;;;28.24;53.45
72525;BME280;60547;48.502;8.996;2023-06-22T09:48:56;97677.28;;;28.26;53.23
72525;BME280;60547;48.502;8.996;2023-06-22T09:51:22;97671.28;;;28.16;54.58
72525;BME280;60547;48.502;8.996;2023-06-22T09:53:49;97667.03;;;28.10;54.01
72525;BME280;60547;48.502;8.996;2023-06-22T09:56:15;97663.06;;;28.13;53.71
72525;BME280;60547;48.502;8.996;2023-06-22T09:58:45;97671.03;;;28.35;53.43
72525;BME280;60547;48.502;8.996;2023-06-22T10:01:12;97672.25;;;28.47;53.48
72525;BME280;60547;48.502;8.996;2023-06-22T10:03:39;97664.31;;;28.25;53.25
72525;BME280;60547;48.502;8.996;2023-06-22T10:06:06;97657.53;;;28.43;51.58
72525;BME280;60547;48.502;8.996;2023-06-22T10:08:31;97651.38;;;28.75;51.40
72525;BME280;60547;48.502;8.996;2023-06-22T10:10:57;97650.44;;;28.80;52.07
72525;BME280;60547;48.502;8.996;2023-06-22T10:13:22;97660.22;;;28.85;51.52
72525;BME280;60547;48.502;8.996;2023-06-22T10:15:48;97659.31;;;29.05;51.38
72525;BME280;60547;48.502;8.996;2023-06-22T10:18:17;97660.50;;;29.25;50.38
72525;BME280;60547;48.502;8.996;2023-06-22T10:20:43;97638.97;;;28.80;51.11
72525;BME280;60547;48.502;8.996;2023-06-22T10:23:08;97642.34;;;29.22;50.02
72525;BME280;60547;48.502;8.996;2023-06-22T10:25:34;97645.22;;;29.38;53.31
72525;BME280;60547;48.502;8.996;2023-06-22T10:27:59;97641.63;;;29.45;52.32
72525;BME280;60547;48.502;8.996;2023-06-22T10:30:25;97646.22;;;29.55;50.91
72525;BME280;60547;48.502;8.996;2023-06-22T10:32:50;97654.56;;;29.23;52.23
72525;BME280;60547;48.502;8.996;2023-06-22T10:35:16;97643.09;;;29.31;51.02
72525;BME280;60547;48.502;8.996;2023-06-22T10:37:45;97646.22;;;29.48;50.85
72525;BME280;60547;48.502;8.996;2023-06-22T10:40:12;97645.78;;;29.21;51.24
72525;BME280;60547;48.502;8.996;2023-06-22T10:42:38;97632.03;;;29.27;51.58
72525;BME280;60547;48.502;8.996;2023-06-22T10:45:04;97632.59;;;29.25;49.42
72525;BME280;60547;48.502;8.996;2023-06-22T10:47:30;97621.31;;;29.27;50.37
72525;BME280;60547;48.502;8.996;2023-06-22T10:49:55;97626.28;;;29.19;50.91
72525;BME280;60547;48.502;8.996;2023-06-22T10:52:21;97638.16;;;29.39;52.96
72525;BME280;60547;48.502;8.996;2023-06-22T10:54:47;97628.19;;;29.09;49.29
72525;BME280;60547;48.502;8.996;2023-06-22T10:57:12;97637.53;;;29.10;53.02
72525;BME280;60547;48.502;8.996;2023-06-22T10:59:37;97622.75;;;28.83;52.00
72525;BME280;60547;48.502;8.996;2023-06-22T11:02:03;97627.75;;;28.98;51.75
72525;BME280;60547;48.502;8.996;2023-06-22T11:04:29;97622.81;;;29.06;50.21
72525;BME280;60547;48.502;8.996;2023-06-22T11:06:54;97624.06;;;28.82;50.83
72525;BME280;60547;48.502;8.996;2023-06-22T11:09:21;97626.59;;;28.93;52.96
72525;BME280;60547;48.502;8.996;2023-06-22T11:11:48;97632.16;;;28.91;52.45
72525;BME280;60547;48.502;8.996;2023-06-22T11:14:14;97630.06;;;28.99;52.71
72525;BME280;60547;48.502;8.996;2023-06-22T11:16:40;97614.63;;;29.33;50.90
72525;BME280;60547;48.502;8.996;2023-06-22T11:19:06;97604.13;;;29.73;51.38
72525;BME280;60547;48.502;8.996;2023-06-22T11:21:32;97602.56;;;30.03;49.73
72525;BME280;60547;48.502;8.996;2023-06-22T11:23:58;97601.97;;;30.12;49.33
72525;BME280;60547;48.502;8.996;2023-06-22T11:26:25;97607.94;;;29.83;49.40
72525;BME280;60547;48.502;8.996;2023-06-22T11:28:53;97600.13;;;29.69;50.31
72525;BME280;60547;48.502;8.996;2023-06-22T11:31:18;97621.34;;;29.58;50.01
72525;BME280;60547;48.502;8.996;2023-06-22T11:33:44;97620.38;;;29.33;50.27
72525;BME280;60547;48.502;8.996;2023-06-22T11:36:14;97628.22;;;29.40;51.45
72525;BME280;60547;48.502;8.996;2023-06-22T11:38:40;97631.25;;;29.42;52.05
72525;BME280;60547;48.502;8.996;2023-06-22T11:41:06;97635.13;;;29.44;51.11
72525;BME280;60547;48.502;8.996;2023-06-22T11:43:33;97629.00;;;29.48;50.90
72525;BME280;60547;48.502;8.996;2023-06-22T11:45:59;97623.66;;;29.60;52.08
72525;BME280;60547;48.502;8.996;2023-06-22T11:48:25;97617.72;;;29.50;51.09
72525;BME280;60547;48.502;8.996;2023-06-22T11:50:50;97611.94;;;29.35;52.00
72525;BME280;60547;48.502;8.996;2023-06-22T11:53:16;97625.91;;;29.31;50.84
72525;BME280;60547;48.502;8.996;2023-06-22T11:55:43;97612.13;;;29.14;52.55
72525;BME280;60547;48.502;8.996;2023-06-22T11:58:09;97606.78;;;29.10;52.13
72525;BME280;60547;48.502;8.996;2023-06-22T12:00:35;97614.78;;;29.04;51.47
72525;BME280;60547;48.502;8.996;2023-06-22T12:03:00;97627.00;;;29.05;52.55
72525;BME280;60547;48.502;8.996;2023-06-22T12:05:26;97615.38;;;29.10;54.45
72525;BME280;60547;48.502;8.996;2023-06-22T12:07:54;97614.16;;;28.83;54.69
72525;BME280;60547;48.502;8.996;2023-06-22T12:10:24;97608.97;;;28.74;56.33
72525;BME280;60547;48.502;8.996;2023-06-22T12:12:50;97619.28;;;28.77;56.68
72525;BME280;60547;48.502;8.996;2023-06-22T12:15:15;97632.47;;;28.80;54.69
72525;BME280;60547;48.502;8.996;2023-06-22T12:17:41;97634.16;;;28.75;56.04
72525;BME280;60547;48.502;8.996;2023-06-22T12:20:07;97651.69;;;28.64;54.63
72525;BME280;60547;48.502;8.996;2023-06-22T12:22:33;97657.47;;;28.72;55.00
72525;BME280;60547;48.502;8.996;2023-06-22T12:24:59;97662.00;;;28.59;54.73
72525;BME280;60547;48.502;8.996;2023-06-22T12:27:25;97658.53;;;28.53;55.59
72525;BME280;60547;48.502;8.996;2023-06-22T12:29:51;97669.59;;;28.49;54.87
72525;BME280;60547;48.502;8.996;2023-06-22T12:32:17;97663.06;;;28.41;54.84
72525;BME280;60547;48.502;8.996;2023-06-22T12:34:44;97666.78;;;28.65;56.97
72525;BME280;60547;48.502;8.996;2023-06-22T12:37:10;97658.72;;;28.55;55.62
72525;BME280;60547;48.502;8.996;2023-06-22T12:39:35;97635.25;;;28.57;55.63
72525;BME280;60547;48.502;8.996;2023-06-22T12:42:01;97632.34;;;28.49;56.08
72525;BME280;60547;48.502;8.996;2023-06-22T12:44:27;97636.03;;;28.57;56.84
72525;BME280;60547;48.502;8.996;2023-06-22T12:46:52;97631.28;;;28.68;56.91
72525;BME280;60547;48.502;8.996;2023-06-22T12:49:18;97633.22;;;28.73;55.90
72525;BME280;60547;48.502;8.996;2023-06-22T12:51:44;97623.03;;;28.56;57.38
72525;BME280;60547;48.502;8.996;2023-06-22T12:54:10;97626.88;;;28.59;56.31
72525;BME280;60547;48.502;8.996;2023-06-22T12:56:37;97622.69;;;28.68;56.96
72525;BME280;60547;48.502;8.996;2023-06-22T12:59:04;97618.50;;;28.69;57.26
72525;BME280;60547;48.502;8.996;2023-06-22T13:01:32;97607.41;;;28.65;58.84
72525;BME280;60547;48.502;8.996;2023-06-22T13:03:58;97603.06;;;28.79;57.67
72525;BME280;60547;48.502;8.996;2023-06-22T13:06:24;97609.81;;;28.97;52.95